Aiken, Texas
Current Conditions -  °F | °C
As of 3:35 PM on Friday 31 Oct 2014 (Local Time) from KPVW Reporting Station
Clear Clear  
Wind Chill: 62°   Ceiling: Unl
Heat Index: 62°   Visibility: 10mi
Dew Point: 30°   Wind: 7mph
Humidity: 31%   Direction: 110°ESE
Pressure: 30.35"   Gusts: NA
Location:  34.14°N, 101.53°W
Report Text: KPVW 312035Z AUTO 11006KT 10SM CLR 17/M01 A3035 RMK AO2 T01651009
Loading
Personal Weather Stations






























Interactive Weather Map New forecast layout! Learn more

10-Day Weather Forecast

Advertisements
Track Severe Weather on mobile